Plattsmouth, NE

11:39 PM CST on December 04, 2016 (GMT -0600)
Plattsmouth Municipal | | Change Station

Elev 1201 ft 40.95 °N, 95.92 °W | Updated 24 minutes ago

Clear
Clear
32 °F
Feels Like 25 °F
N
9
Wind Variable Wind from South

Today
High -- | Low -- °F
--% Chance of Precip.
Yesterday
High -- | Low -- °F
Precip. -- in
Pressure 29.90 in
Visibility 10.0 miles
Clouds Clear
Windchill 25 °F
Dew Point 29 °F
Humidity 88%
Rainfall 0.03 in
Snow Depth Not available.
7:32 AM 4:55 PM
Waxing Crescent, 28% visible
METAR KPMV 050515Z AUTO 17008KT 10SM CLR 00/M01 A2990 RMK AO2 T00021015
Pressure 29.90 in
Visibility 10.0 miles
Clouds Clear
Windchill 25 °F
Dew Point 29 °F
Humidity 88%
Rainfall 0.03 in
Snow Depth Not available.
7:32 AM 4:55 PM
Waxing Crescent, 28% visible
METAR KPMV 050515Z AUTO 17008KT 10SM CLR 00/M01 A2990 RMK AO2 T00021015

10-Day Weather Forecast

Almanac

Astronomy

Dec. 04, 2016 Rise Set
Actual Time
Civil Twilight
Nautical Twilight
Astronomical Twilight
Moon
Length of Visible Light
Length of Day
Tomorrow will be .
, % of the Moon is Illuminated

Today's Extremes

State Highs State Lows

Community

WunderPhotos

Upload Photos

1,955,765 photos uploaded!

WunderBlog® & News

Nearby

Air Quality

  Air Quality AQ Index Pollutant
Not available.

Snow Depth

Station Depth Elevation

Earthquake Activity

City Distance Mag. Time & Date
Minimum magnitude displayed is 2.5.

Coastal Water Temperatures

Place Temperature

Stations

Nearby Weather Stations

Station Location Temp. Windchill Dew Point Humidity Wind Precip. Elev Updated Type
                   

Watches & Warnings

There are currently no watches in effect.